Time;durP1;ratioP1;P1;durP2;ratioP2;P2;SDS_P1;SDS_P2;PMS_P1;PMS_P2;Temp;Humidity;BMP_temperature;BMP_pressure;BME280_temperature;BME280_humidity;BME280_pressure;Samples;Min_cycle;Max_cycle;Signal;HPM_P1;HPM_P2
2024/02/26 00:00:01;;;;;;;2.60;1.70;;;9.90;52.70;;;5.05;84.76;93553.94;4991632;28;20018;-53
2024/02/26 00:02:27;;;;;;;4.13;2.03;;;9.90;53.40;;;5.08;85.12;93563.94;4990768;28;20033;-52
2024/02/26 00:04:53;;;;;;;4.13;1.90;;;9.90;52.80;;;5.10;84.41;93565.22;4988997;28;20013;-56
2024/02/26 00:07:19;;;;;;;2.15;1.80;;;9.90;52.90;;;5.12;83.97;93567.59;4973920;28;20026;-53
2024/02/26 00:09:44;;;;;;;3.00;1.70;;;9.90;52.90;;;5.12;83.95;93564.94;4990351;28;20469;-52
2024/02/26 00:12:10;;;;;;;2.00;1.40;;;9.90;52.90;;;5.10;84.14;93575.78;4991653;28;20029;-54
2024/02/26 00:14:36;;;;;;;3.08;2.03;;;9.90;53.00;;;5.11;85.20;93579.22;4990116;28;20117;-52
2024/02/26 00:17:02;;;;;;;4.60;1.55;;;10.00;53.00;;;5.08;86.25;93577.13;4991266;28;20026;-52
2024/02/26 00:19:28;;;;;;;2.13;1.42;;;10.00;53.10;;;5.10;84.39;93578.41;4974144;28;20029;-53
2024/02/26 00:21:55;;;;;;;2.45;1.48;;;10.00;53.10;;;5.09;83.40;93568.16;4990106;28;20498;-53
2024/02/26 00:24:21;;;;;;;2.45;1.60;;;10.00;53.00;;;5.10;83.56;93570.50;4990978;28;20060;-52
2024/02/26 00:26:52;;;;;;;2.33;1.13;;;9.90;53.00;;;5.14;82.94;93567.28;4990708;28;20380;-55
2024/02/26 00:29:19;;;;;;;1.73;1.20;;;10.00;53.00;;;5.12;81.93;93572.09;4990953;28;20048;-52
2024/02/26 00:31:45;;;;;;;3.95;1.50;;;10.00;52.90;;;5.13;81.74;93565.72;4989060;28;20030;-57
2024/02/26 00:34:11;;;;;;;2.10;1.50;;;10.00;52.90;;;5.15;83.17;93564.38;4990459;28;20080;-52
2024/02/26 00:36:37;;;;;;;3.00;1.55;;;10.00;52.90;;;5.15;85.38;93561.75;4990697;28;20104;-51
2024/02/26 00:39:03;;;;;;;2.08;1.33;;;10.00;53.00;;;5.10;87.49;93559.94;4987766;28;20034;-52
2024/02/26 00:41:29;;;;;;;2.47;1.30;;;10.00;53.10;;;5.13;87.05;93566.50;4991303;28;20040;-53
2024/02/26 00:43:55;;;;;;;3.22;1.58;;;10.00;53.20;;;5.12;85.65;93564.94;4990070;28;20065;-56
2024/02/26 00:46:21;;;;;;;2.75;1.23;;;10.00;53.20;;;5.13;84.83;93565.72;4990793;28;20107;-54
2024/02/26 00:48:47;;;;;;;1.85;1.10;;;10.00;53.20;;;5.09;83.28;93568.16;4990170;28;20029;-53
2024/02/26 00:51:13;;;;;;;1.38;1.13;;;9.90;53.00;;;5.08;83.36;93575.28;4990631;28;20033;-55
2024/02/26 00:53:38;;;;;;;2.08;1.27;;;10.00;53.00;;;5.11;83.03;93579.22;4991797;28;20022;-54
2024/02/26 00:56:05;;;;;;;1.58;1.20;;;10.00;53.00;;;5.10;83.99;93577.63;5000666;23;20053;-53
2024/02/26 00:58:30;;;;;;;2.78;1.50;;;10.00;53.10;;;5.10;83.53;93569.72;4990135;28;20503;-52
2024/02/26 01:00:56;;;;;;;2.40;1.20;;;10.00;53.10;;;5.10;83.13;93569.72;4990820;28;20141;-53
2024/02/26 01:03:22;;;;;;;1.33;1.17;;;10.00;53.10;;;5.10;83.64;93572.34;4988756;28;20428;-50
2024/02/26 01:05:48;;;;;;;1.27;1.10;;;9.90;53.10;;;5.06;82.01;93581.91;4992984;28;20116;-54
2024/02/26 01:08:14;;;;;;;1.00;0.90;;;9.90;53.10;;;5.05;81.97;93593.53;4993710;28;20443;-49
2024/02/26 01:10:39;;;;;;;1.52;1.40;;;9.90;53.10;;;5.06;82.09;93595.09;4994423;28;20041;-54
2024/02/26 01:13:07;;;;;;;3.15;1.65;;;9.90;53.10;;;5.05;81.95;93596.16;4996245;28;20365;-56
2024/02/26 01:15:33;;;;;;;1.15;1.05;;;9.90;53.10;;;5.05;81.51;93593.53;4993754;28;20079;-56
2024/02/26 01:17:59;;;;;;;2.25;1.45;;;9.80;53.10;;;5.05;81.52;93591.66;4997187;28;20037;-58
2024/02/26 01:20:25;;;;;;;2.42;1.52;;;9.80;53.10;;;5.07;80.92;93594.03;4993875;28;20109;-55
2024/02/26 01:22:50;;;;;;;1.73;1.40;;;9.80;53.10;;;5.04;79.99;93591.94;4992674;28;20029;-58
2024/02/26 01:25:16;;;;;;;1.38;1.23;;;9.80;53.00;;;5.02;80.04;93596.72;4995372;28;20079;-58
2024/02/26 01:27:43;;;;;;;4.78;1.20;;;9.80;53.00;;;5.04;79.40;93597.22;4992925;28;20022;-57
2024/02/26 01:30:11;;;;;;;2.28;1.52;;;9.80;53.00;;;5.05;78.44;93596.94;4990135;28;20145;-58
2024/02/26 01:32:36;;;;;;;3.08;1.55;;;9.80;53.00;;;5.06;78.02;93593.22;4997344;28;20052;-56
2024/02/26 01:35:03;;;;;;;3.35;1.50;;;9.80;52.90;;;5.09;77.81;93589.25;4996425;28;20062;-54
2024/02/26 01:37:29;;;;;;;2.63;1.33;;;9.80;52.90;;;5.12;78.37;93596.63;4993990;28;20037;-56
2024/02/26 01:39:56;;;;;;;2.03;1.40;;;9.80;52.90;;;5.07;77.21;93589.53;4992169;28;20024;-54
2024/02/26 01:42:21;;;;;;;1.52;1.38;;;9.80;52.80;;;5.08;77.28;93591.13;4995591;28;20021;-53
2024/02/26 01:44:47;;;;;;;1.70;1.27;;;9.80;52.80;;;5.10;77.50;93585.53;4995319;28;20024;-52
2024/02/26 01:47:14;;;;;;;2.25;1.38;;;9.80;52.80;;;5.09;77.72;93587.41;4994023;28;20354;-52
2024/02/26 01:49:41;;;;;;;1.85;1.35;;;9.80;52.80;;;5.10;78.08;93583.69;4995495;28;20361;-51
2024/02/26 01:52:11;;;;;;;2.33;1.38;;;9.80;52.80;;;5.14;78.72;93585.78;5000882;28;20408;-52
2024/02/26 01:54:40;;;;;;;3.03;1.40;;;9.90;52.80;;;5.16;79.08;93586.28;4981193;28;20030;-52
2024/02/26 01:57:08;;;;;;;1.95;1.20;;;9.80;52.80;;;5.18;78.93;93590.22;4994118;28;20164;-54
2024/02/26 01:59:35;;;;;;;2.70;1.10;;;9.90;52.80;;;5.20;79.13;93589.94;4995932;28;20026;-57
2024/02/26 02:02:08;;;;;;;1.83;1.15;;;9.90;52.90;;;5.20;79.46;93590.75;4994390;28;20021;-55
2024/02/26 02:04:37;;;;;;;1.75;1.20;;;9.90;52.90;;;5.21;80.17;93592.31;4995480;28;20033;-56
2024/02/26 02:07:04;;;;;;;2.13;1.27;;;9.90;52.90;;;5.20;80.38;93587.28;4978206;28;20400;-53
2024/02/26 02:09:31;;;;;;;2.20;1.30;;;9.90;52.90;;;5.23;80.49;93584.91;4977341;28;20228;-58
2024/02/26 02:12:00;;;;;;;2.08;1.30;;;10.00;53.00;;;5.24;81.03;93575.13;4978697;28;20025;-54
2024/02/26 02:14:26;;;;;;;1.67;1.20;;;10.00;53.60;;;5.26;81.78;93575.63;4993934;28;20491;-55
2024/02/26 02:16:52;;;;;;;1.92;1.30;;;10.00;53.10;;;5.28;82.34;93578.78;4995408;28;20040;-57
2024/02/26 02:19:18;;;;;;;1.92;1.30;;;10.00;53.10;;;5.31;82.49;93568.44;4977887;28;20480;-58
2024/02/26 02:21:43;;;;;;;1.35;1.00;;;10.00;53.20;;;5.32;83.25;93577.16;4994644;28;20480;-56
2024/02/26 02:24:09;;;;;;;2.08;1.27;;;10.00;53.20;;;5.35;83.38;93568.66;4995402;28;20026;-54
2024/02/26 02:26:36;;;;;;;1.27;1.02;;;10.00;53.30;;;5.38;83.71;93568.09;4993842;28;20055;-52
2024/02/26 02:29:03;;;;;;;1.50;1.00;;;10.10;53.40;;;5.40;84.08;93567.84;4994856;28;20037;-54
2024/02/26 02:31:29;;;;;;;2.08;1.00;;;10.10;53.40;;;5.43;84.11;93564.63;4977593;28;20067;-53
2024/02/26 02:33:55;;;;;;;1.02;0.93;;;10.10;53.50;;;5.44;83.89;93566.97;4976828;28;20028;-55
2024/02/26 02:36:21;;;;;;;1.83;1.05;;;10.20;53.50;;;5.43;84.12;93556.72;4995198;28;20111;-54
2024/02/26 02:38:51;;;;;;;1.50;0.82;;;10.10;53.50;;;5.43;84.85;93562.00;4994302;28;20053;-55
2024/02/26 02:41:18;;;;;;;1.58;0.90;;;10.20;53.60;;;5.43;84.95;93556.72;4977465;28;20468;-56
2024/02/26 02:43:45;;;;;;;1.60;1.15;;;10.20;53.60;;;5.45;84.89;93557.19;4994315;28;20030;-53
2024/02/26 02:46:13;;;;;;;1.88;1.00;;;10.20;53.60;;;5.41;85.95;93551.69;4994217;28;20018;-54
2024/02/26 02:48:42;;;;;;;3.08;1.08;;;10.20;53.70;;;5.26;88.98;93541.31;4993495;28;20108;-53
2024/02/26 02:51:09;;;;;;;1.40;1.00;;;10.20;53.80;;;5.18;89.76;93540.09;4990655;28;20109;-53
2024/02/26 02:53:34;;;;;;;1.30;1.00;;;10.20;54.40;;;5.25;89.91;93540.53;4980721;28;20029;-53
2024/02/26 02:56:00;;;;;;;1.02;0.82;;;10.10;53.90;;;5.23;89.91;93537.41;4981414;28;20112;-55
2024/02/26 02:58:26;;;;;;;1.95;0.90;;;10.10;54.10;;;5.26;90.29;93539.44;4957846;28;20038;-56
2024/02/26 03:00:52;;;;;;;1.23;0.93;;;10.10;54.10;;;5.30;89.74;93539.69;4957652;28;20104;-52
2024/02/26 03:03:18;;;;;;;1.25;0.95;;;10.10;54.10;;;5.30;90.77;93539.69;4954778;28;20026;-55
2024/02/26 03:05:43;;;;;;;1.73;0.80;;;10.10;54.40;;;5.30;90.65;93540.47;4959661;28;20034;-55
2024/02/26 03:08:09;;;;;;;1.80;1.17;;;10.10;54.40;;;5.31;90.65;93536.75;4957868;28;20157;-58
2024/02/26 03:10:35;;;;;;;1.35;1.00;;;10.10;54.50;;;5.28;91.57;93528.63;4954305;28;20015;-54
2024/02/26 03:13:01;;;;;;;2.55;0.93;;;10.10;54.60;;;5.28;91.32;93518.84;4955515;28;20041;-52
2024/02/26 03:15:27;;;;;;;1.65;1.00;;;10.00;54.70;;;5.27;91.82;93514.63;4957770;28;20050;-53
2024/02/26 03:17:53;;;;;;;5.53;1.23;;;10.00;54.70;;;5.29;91.64;93509.06;4956504;28;20117;-53
2024/02/26 03:20:19;;;;;;;1.70;1.20;;;10.00;54.80;;;5.28;91.49;93507.50;4957661;28;20019;-55
2024/02/26 03:22:45;;;;;;;1.08;0.98;;;10.00;54.90;;;5.23;92.62;93511.00;4958128;28;20045;-58
2024/02/26 03:25:11;;;;;;;1.40;0.82;;;10.00;54.90;;;5.16;93.07;93501.84;4955617;28;20027;-57
2024/02/26 03:27:37;;;;;;;1.65;1.05;;;9.90;55.00;;;5.08;92.60;93511.16;4958079;28;20381;-53
2024/02/26 03:30:03;;;;;;;1.50;0.82;;;9.90;55.10;;;5.01;90.96;93513.31;4958724;28;20284;-53
2024/02/26 03:32:29;;;;;;;1.55;1.17;;;9.80;55.00;;;4.93;90.24;93521.88;4958310;28;20087;-53
2024/02/26 03:34:55;;;;;;;3.03;1.27;;;9.80;55.00;;;4.84;90.16;93511.91;4957567;28;20172;-51
2024/02/26 03:37:21;;;;;;;1.05;0.95;;;9.70;55.00;;;4.71;88.35;93506.50;4958623;28;20500;-56
2024/02/26 03:39:47;;;;;;;1.10;1.00;;;9.70;55.00;;;4.62;87.50;93499.19;4948008;28;20031;-56
2024/02/26 03:42:13;;;;;;;1.60;1.38;;;9.60;54.90;;;4.71;87.43;93512.56;4937511;28;20022;-56
2024/02/26 03:44:39;;;;;;;3.45;1.20;;;9.50;54.90;;;4.71;87.76;93531.03;4946190;28;20034;-58
2024/02/26 03:47:05;;;;;;;4.88;1.50;;;9.50;54.90;;;4.67;89.46;93534.47;4953445;28;20033;-57
2024/02/26 03:49:31;;;;;;;1.20;1.00;;;9.50;55.00;;;4.62;90.57;93540.59;4953835;28;20035;-57
2024/02/26 03:51:56;;;;;;;2.80;1.30;;;9.40;55.10;;;4.58;90.87;93532.47;4952977;28;20492;-56
2024/02/26 03:54:22;;;;;;;2.55;1.13;;;9.40;55.20;;;4.58;89.91;93523.78;4953831;28;20062;-57
2024/02/26 03:56:48;;;;;;;3.10;1.40;;;9.30;55.20;;;4.55;89.58;93534.88;4973954;28;20045;-58
2024/02/26 03:59:14;;;;;;;3.50;1.60;;;9.30;55.20;;;4.49;89.34;93528.84;4992383;28;20678;-58
2024/02/26 04:01:45;;;;;;;1.65;1.13;;;9.30;55.30;;;4.43;90.71;93542.34;4992567;28;20048;-57
2024/02/26 04:04:11;;;;;;;2.85;1.40;;;9.30;55.30;;;4.37;91.65;93538.94;4974805;28;20030;-56
2024/02/26 04:06:37;;;;;;;2.22;1.55;;;9.30;55.40;;;4.35;92.36;93554.25;4992710;28;20541;-57
2024/02/26 04:09:03;;;;;;;2.58;1.80;;;9.30;56.00;;;4.34;92.40;93566.63;4990996;28;20028;-58
2024/02/26 04:11:30;;;;;;;2.08;1.55;;;9.20;55.40;;;4.34;92.45;93571.91;4992147;28;20472;-56
2024/02/26 04:13:56;;;;;;;3.00;1.60;;;9.20;55.50;;;4.36;92.56;93577.72;4991551;28;20040;-55
2024/02/26 04:16:22;;;;;;;3.10;1.73;;;9.20;55.50;;;4.35;92.83;93575.34;4992715;28;20049;-57
2024/02/26 04:18:49;;;;;;;4.95;1.50;;;9.30;55.60;;;4.35;92.72;93578.75;4973844;28;20497;-52
2024/02/26 04:21:15;;;;;;;3.15;1.80;;;9.30;55.60;;;4.35;93.59;93589.28;4991453;28;20026;-52
2024/02/26 04:23:40;;;;;;;4.10;1.80;;;9.20;55.70;;;4.37;93.38;93595.09;4992050;28;20021;-57
2024/02/26 04:26:06;;;;;;;2.40;1.70;;;9.20;55.70;;;4.40;93.74;93596.41;4991165;28;20075;-58
2024/02/26 04:28:32;;;;;;;3.50;1.60;;;9.20;55.80;;;4.42;93.98;93602.19;4992038;28;20029;-56
2024/02/26 04:30:58;;;;;;;1.40;1.13;;;9.30;55.90;;;4.43;93.92;93597.72;4991262;28;20034;-57
2024/02/26 04:33:24;;;;;;;1.27;1.17;;;9.30;55.90;;;4.44;94.48;93600.06;4991162;28;20439;-58
2024/02/26 04:35:49;;;;;;;3.05;1.17;;;9.30;55.90;;;4.47;94.77;93599.50;4991896;28;20032;-58
2024/02/26 04:38:15;;;;;;;2.55;1.15;;;9.30;56.00;;;4.49;94.79;93597.38;4990681;28;20400;-57
2024/02/26 04:40:41;;;;;;;2.08;1.25;;;9.30;56.00;;;4.52;94.33;93603.97;4991561;28;20025;-56
2024/02/26 04:43:07;;;;;;;2.05;1.30;;;9.30;56.60;;;4.55;94.84;93608.69;4990896;28;20040;-58
2024/02/26 04:45:32;;;;;;;1.83;1.38;;;9.40;56.20;;;4.58;95.86;93608.16;4991066;28;20531;-58
2024/02/26 04:47:59;;;;;;;1.92;1.00;;;9.40;56.20;;;4.67;95.80;93618.88;4991858;28;20080;-57
2024/02/26 04:50:25;;;;;;;1.67;1.10;;;9.40;56.30;;;4.71;95.31;93607.53;4988879;28;20026;-57
2024/02/26 04:52:51;;;;;;;1.83;1.10;;;9.40;56.30;;;4.74;95.36;93606.19;4989147;28;20029;-56
2024/02/26 04:55:17;;;;;;;1.33;1.05;;;9.50;56.40;;;4.76;95.90;93602.19;4991710;28;20507;-57
2024/02/26 04:57:42;;;;;;;1.10;1.00;;;9.50;56.40;;;4.78;96.39;93596.66;4988786;28;20034;-57
2024/02/26 05:00:10;;;;;;;1.40;1.08;;;9.50;56.40;;;4.78;95.81;93597.44;4986982;28;20388;-56
2024/02/26 05:02:38;;;;;;;3.15;1.25;;;9.50;56.40;;;4.78;95.58;93592.16;4990208;28;20499;-54
2024/02/26 05:05:06;;;;;;;3.80;1.10;;;9.60;56.50;;;4.79;95.57;93604.28;4990162;28;20045;-55
2024/02/26 05:07:32;;;;;;;1.73;1.30;;;9.60;56.50;;;4.75;96.21;93595.34;4991380;28;20454;-54
2024/02/26 05:09:59;;;;;;;1.00;0.90;;;9.60;56.50;;;4.69;97.43;93598.31;4990535;28;20108;-55
2024/02/26 05:12:25;;;;;;;2.13;1.30;;;9.50;56.40;;;4.72;97.43;93600.38;4991813;28;20105;-56
2024/02/26 05:14:50;;;;;;;2.35;1.02;;;9.60;56.60;;;4.74;97.52;93609.59;4990553;28;20105;-55
2024/02/26 05:17:16;;;;;;;1.33;1.10;;;9.50;56.60;;;4.76;98.11;93604.03;4990364;28;20026;-58
2024/02/26 05:19:42;;;;;;;1.27;0.93;;;9.50;56.70;;;4.72;98.97;93614.34;4990720;28;20388;-58
2024/02/26 05:22:08;;;;;;;2.95;1.30;;;9.50;56.70;;;4.73;98.80;93615.94;4989902;28;20079;-55
2024/02/26 05:24:33;;;;;;;1.75;1.10;;;9.50;56.80;;;4.74;98.58;93622.78;4990683;28;20438;-57
2024/02/26 05:27:00;;;;;;;2.83;1.15;;;9.50;56.90;;;4.72;98.66;93618.84;4990498;28;20040;-56
2024/02/26 05:29:26;;;;;;;1.55;1.02;;;9.50;56.90;;;4.73;98.67;93625.69;4990845;28;20029;-55
2024/02/26 05:31:54;;;;;;;2.38;1.10;;;9.50;57.60;;;4.71;98.35;93630.47;4990388;28;20032;-53
2024/02/26 05:34:20;;;;;;;5.20;2.42;;;9.50;57.00;;;4.60;99.66;93621.81;4990957;28;20610;-55
2024/02/26 05:36:45;;;;;;;2.38;1.65;;;9.50;57.00;;;4.66;99.12;93617.31;4991133;28;20396;-54
2024/02/26 05:39:12;;;;;;;1.73;1.27;;;9.50;57.00;;;4.66;99.14;93620.72;4989700;28;20030;-59
2024/02/26 05:41:38;;;;;;;2.70;1.30;;;9.50;57.00;;;4.66;99.17;93627.84;4991499;28;20022;-53
2024/02/26 05:44:04;;;;;;;3.97;1.65;;;9.50;57.20;;;4.61;99.96;93618.94;4989995;28;20033;-53
2024/02/26 05:46:30;;;;;;;2.78;1.80;;;9.50;57.20;;;4.60;100.00;93621.81;4990957;28;20123;-54
2024/02/26 05:48:55;;;;;;;4.72;2.55;;;9.40;57.20;;;4.55;100.00;93630.56;4988804;28;20431;-56
2024/02/26 05:51:21;;;;;;;5.18;2.92;;;9.40;57.30;;;4.52;100.00;93628.47;4989997;28;20017;-53
2024/02/26 05:53:53;;;;;;;4.18;2.78;;;9.40;57.40;;;4.50;100.00;93622.69;4991323;28;20064;-56
2024/02/26 05:56:21;;;;;;;3.42;2.10;;;9.30;57.40;;;4.48;100.00;93631.94;4989554;28;20058;-53
2024/02/26 05:58:47;;;;;;;2.92;2.13;;;9.30;57.50;;;4.43;100.00;93630.13;4990520;28;20469;-56
2024/02/26 06:01:13;;;;;;;2.90;1.52;;;9.30;57.60;;;4.40;100.00;93636.72;4990590;28;20381;-53
2024/02/26 06:03:39;;;;;;;2.88;1.95;;;9.30;57.70;;;4.37;100.00;93642.53;4989299;28;20060;-57
2024/02/26 06:06:05;;;;;;;4.68;1.60;;;9.20;57.70;;;4.35;100.00;93631.47;4990811;28;20113;-57
2024/02/26 06:08:31;;;;;;;3.28;1.63;;;9.20;57.80;;;4.33;100.00;93648.66;4990113;28;20120;-54
2024/02/26 06:10:56;;;;;;;1.50;1.40;;;9.20;57.90;;;4.29;100.00;93639.69;4990651;28;20022;-55
2024/02/26 06:13:22;;;;;;;1.60;1.10;;;9.20;58.00;;;4.28;100.00;93630.22;4990784;28;20030;-54
2024/02/26 06:15:48;;;;;;;4.78;1.50;;;9.20;58.00;;;4.29;100.00;93637.84;4989452;28;20083;-54
2024/02/26 06:18:14;;;;;;;2.88;1.42;;;9.10;58.00;;;4.27;100.00;93634.69;4990395;28;20095;-56
2024/02/26 06:20:40;;;;;;;2.05;1.65;;;9.10;58.10;;;4.23;100.00;93638.94;4989394;28;20025;-53
2024/02/26 06:23:05;;;;;;;2.80;1.77;;;9.10;58.10;;;4.21;100.00;93638.41;4991077;28;20022;-54
2024/02/26 06:25:31;;;;;;;6.47;1.90;;;9.10;58.30;;;4.17;100.00;93630.28;4989144;28;20392;-54
2024/02/26 06:27:57;;;;;;;2.97;1.52;;;9.10;58.30;;;4.17;100.00;93621.59;4989653;28;20025;-54
2024/02/26 06:30:23;;;;;;;2.72;1.20;;;9.10;58.40;;;4.16;100.00;93612.88;4990042;28;20026;-57
2024/02/26 06:32:49;;;;;;;2.20;1.42;;;9.00;58.40;;;4.15;100.00;93608.66;4989241;28;20052;-56
2024/02/26 06:35:14;;;;;;;1.60;1.40;;;9.10;58.50;;;4.16;100.00;93617.34;4992496;28;20504;-55
2024/02/26 06:37:40;;;;;;;2.15;1.50;;;9.10;58.50;;;4.18;100.00;93615.25;4994013;28;20124;-57
2024/02/26 06:40:07;;;;;;;4.20;1.58;;;9.10;58.60;;;4.22;100.00;93618.13;4992461;28;20025;-53
2024/02/26 06:42:33;;;;;;;2.45;1.50;;;9.10;58.60;;;4.20;100.00;93613.13;4976772;28;20091;-53
2024/02/26 06:44:59;;;;;;;2.25;1.35;;;9.20;58.60;;;4.25;100.00;93621.00;4992922;28;20025;-55
2024/02/26 06:47:25;;;;;;;9.27;6.35;;;9.30;58.60;;;4.28;100.00;93619.66;4994512;28;20041;-57
2024/02/26 06:49:51;;;;;;;2.05;1.50;;;9.30;58.60;;;4.37;100.00;93631.22;4990766;28;20029;-57
2024/02/26 06:52:17;;;;;;;2.08;1.33;;;9.50;58.60;;;4.43;100.00;93640.66;4992156;28;20029;-57
2024/02/26 06:54:44;;;;;;;3.03;1.60;;;9.60;58.50;;;4.51;100.00;93642.75;4995353;28;20037;-57
2024/02/26 06:57:10;;;;;;;2.90;1.98;;;9.60;58.50;;;4.59;100.00;93644.78;4977098;28;20054;-55
2024/02/26 06:59:36;;;;;;;3.10;1.60;;;9.70;58.40;;;4.63;100.00;93645.00;4974290;28;20077;-57
2024/02/26 07:02:02;;;;;;;3.15;1.30;;;9.80;58.40;;;4.69;100.00;93641.28;4973337;28;20030;-56
2024/02/26 07:04:28;;;;;;;3.53;1.48;;;9.80;58.30;;;4.76;100.00;93638.34;4974556;28;20030;-56
2024/02/26 07:06:54;;;;;;;2.15;1.30;;;9.90;58.40;;;4.79;100.00;93649.13;4974437;28;20029;-54
2024/02/26 07:09:20;;;;;;;1.60;1.50;;;9.90;58.30;;;4.79;100.00;93645.69;4973490;28;20030;-56
2024/02/26 07:11:46;;;;;;;4.43;1.38;;;10.00;58.40;;;4.83;100.00;93646.75;4974300;28;20038;-55
2024/02/26 07:14:13;;;;;;;3.20;1.48;;;10.00;58.30;;;4.84;100.00;93653.59;4973299;28;20034;-57
2024/02/26 07:16:39;;;;;;;2.13;1.38;;;10.00;58.30;;;4.85;100.00;93658.56;4974283;28;20524;-54
2024/02/26 07:19:05;;;;;;;3.88;2.88;;;10.00;58.20;;;4.89;100.00;93661.47;4974552;28;20041;-59
2024/02/26 07:21:31;;;;;;;3.72;2.00;;;10.10;58.20;;;4.94;100.00;93658.00;4977846;28;20547;-59
2024/02/26 07:23:57;;;;;;;3.60;1.60;;;10.10;58.20;;;4.99;100.00;93656.09;4975074;28;20026;-55
2024/02/26 07:26:25;;;;;;;2.25;1.60;;;10.20;58.20;;;5.06;100.00;93655.78;4974048;28;20033;-59
2024/02/26 07:28:50;;;;;;;3.65;1.58;;;10.30;58.20;;;5.12;100.00;93653.91;4974230;28;20460;-57
2024/02/26 07:31:18;;;;;;;3.90;1.60;;;10.40;58.10;;;5.16;100.00;93666.25;4974469;28;20026;-58
2024/02/26 07:33:43;;;;;;;2.67;1.52;;;10.50;58.00;;;5.22;100.00;93661.72;4973145;28;20108;-57
2024/02/26 07:36:09;;;;;;;6.03;2.08;;;10.60;58.00;;;5.32;100.00;93670.34;4971051;28;20101;-50
2024/02/26 07:38:35;;;;;;;5.20;2.05;;;10.70;57.90;;;5.49;100.00;93659.38;4975500;28;20113;-51
2024/02/26 07:41:03;;;;;;;4.55;1.98;;;10.90;57.70;;;5.65;99.55;93654.72;4975668;28;20477;-50
2024/02/26 07:43:29;;;;;;;3.55;1.90;;;11.20;57.60;;;5.99;99.48;93651.22;4974517;28;20030;-55
2024/02/26 07:45:55;;;;;;;3.63;1.33;;;11.50;57.40;;;6.40;96.86;93656.00;4974392;28;20096;-49
2024/02/26 07:48:21;;;;;;;2.60;1.40;;;12.00;57.10;;;6.57;91.07;93650.19;4977978;28;20057;-50
2024/02/26 07:50:47;;;;;;;1.63;1.38;;;12.20;56.70;;;6.66;88.83;93656.44;4973069;28;20500;-51
2024/02/26 07:53:13;;;;;;;1.42;1.17;;;12.50;56.40;;;6.75;89.00;93651.28;4975556;28;20034;-49
2024/02/26 07:55:39;;;;;;;2.22;1.20;;;12.60;56.00;;;7.06;88.33;93662.19;4967603;28;20499;-53
2024/02/26 07:58:05;;;;;;;1.30;1.20;;;12.80;55.80;;;7.38;87.29;93658.75;4994335;28;20037;-50
2024/02/26 08:00:31;;;;;;;1.20;1.10;;;13.10;55.50;;;7.69;84.19;93661.66;4996970;28;20075;-53
2024/02/26 08:02:57;;;;;;;1.40;1.23;;;13.40;55.20;;;8.07;82.67;93656.19;4996032;28;20472;-50
2024/02/26 08:05:22;;;;;;;2.53;1.40;;;13.80;54.80;;;8.51;80.08;93644.19;4991872;28;20045;-51
2024/02/26 08:07:48;;;;;;;0.95;0.90;;;14.30;54.30;;;8.78;76.91;93633.50;4998342;28;20106;-55
2024/02/26 08:10:14;;;;;;;1.95;1.10;;;14.60;53.70;;;8.89;75.57;93641.22;4991775;28;20026;-53
2024/02/26 08:12:40;;;;;;;1.23;1.00;;;14.70;53.10;;;9.00;73.48;93648.66;4998349;28;20029;-55
2024/02/26 08:15:08;;;;;;;1.50;1.30;;;14.90;52.80;;;9.07;73.50;93650.13;4993481;28;20032;-48
2024/02/26 08:17:34;;;;;;;1.35;1.20;;;14.90;52.40;;;9.23;73.11;93660.06;4995007;28;20117;-49
2024/02/26 08:20:02;;;;;;;1.88;1.23;;;15.00;52.20;;;9.57;71.61;93655.28;4994135;28;20101;-55
2024/02/26 08:22:28;;;;;;;0.90;0.90;;;15.20;51.90;;;9.87;69.81;93648.38;4993668;28;20021;-51
2024/02/26 08:24:54;;;;;;;1.30;1.20;;;15.50;52.40;;;10.26;67.75;93650.28;4996020;28;20030;-53
2024/02/26 08:27:19;;;;;;;2.17;1.10;;;15.80;51.40;;;10.58;65.02;93654.41;4992532;28;20030;-51
2024/02/26 08:29:45;;;;;;;1.75;1.17;;;16.30;50.90;;;10.94;63.14;93656.03;4995416;28;20026;-52
2024/02/26 08:32:11;;;;;;;1.83;1.00;;;16.60;50.20;;;10.88;61.68;93660.72;4993612;28;20144;-52
2024/02/26 08:34:37;;;;;;;1.00;0.90;;;16.90;49.60;;;11.11;61.72;93664.00;4991893;28;20030;-52
2024/02/26 08:37:03;;;;;;;2.13;1.02;;;17.10;49.80;;;11.37;57.91;93665.88;4990083;28;20025;-51
2024/02/26 08:39:29;;;;;;;1.90;1.08;;;17.20;48.60;;;11.39;58.46;93662.91;4989818;28;20445;-52
2024/02/26 08:41:55;;;;;;;1.48;1.23;;;17.30;47.90;;;11.43;57.75;93658.50;4990518;28;20109;-50
2024/02/26 08:44:21;;;;;;;1.38;1.27;;;17.60;47.10;;;11.46;58.36;93655.22;4989380;28;20029;-52
2024/02/26 08:46:46;;;;;;;2.25;1.20;;;17.80;46.50;;;11.42;57.64;93656.94;4990619;28;20382;-47
2024/02/26 08:49:12;;;;;;;1.70;1.20;;;18.20;46.00;;;11.34;57.55;93659.31;4983551;28;20424;-48
2024/02/26 08:51:43;;;;;;;1.85;1.27;;;18.50;45.50;;;11.48;56.94;93667.13;4991179;28;20053;-47
2024/02/26 08:54:09;;;;;;;1.27;1.17;;;18.50;44.80;;;11.46;56.76;93679.19;4983602;28;20026;-51
2024/02/26 08:56:35;;;;;;;1.52;1.30;;;18.30;44.70;;;11.61;56.11;93683.25;4988025;28;20042;-51
2024/02/26 08:59:03;;;;;;;1.67;1.13;;;18.20;44.70;;;11.31;55.01;93696.44;4990912;28;20396;-52
2024/02/26 09:01:31;;;;;;;1.10;1.00;;;18.10;44.50;;;11.46;55.89;93692.53;4995595;28;20607;-50
2024/02/26 09:03:57;;;;;;;2.25;1.30;;;18.00;44.30;;;11.49;55.91;93691.91;4992539;28;20026;-50
2024/02/26 09:06:23;;;;;;;2.60;1.00;;;17.90;44.40;;;11.57;55.37;93691.13;4994476;28;20053;-52
2024/02/26 09:08:49;;;;;;;1.20;1.10;;;17.80;44.30;;;11.51;54.93;93682.50;4989468;28;20030;-49
2024/02/26 09:11:16;;;;;;;2.45;1.17;;;17.70;44.10;;;11.42;55.69;93681.72;4995112;28;20024;-51
2024/02/26 09:13:42;;;;;;;1.15;1.02;;;17.70;44.00;;;11.32;55.63;93679.38;4993904;28;20045;-50
2024/02/26 09:16:08;;;;;;;1.42;1.02;;;17.60;44.50;;;11.19;56.00;93675.78;4992619;28;20515;-48
2024/02/26 09:18:34;;;;;;;3.10;1.13;;;17.50;43.90;;;10.53;58.67;93683.88;4989565;28;20046;-47
2024/02/26 09:21:04;;;;;;;1.50;1.20;;;17.40;43.60;;;10.51;57.98;93677.28;4988336;28;20100;-54
2024/02/26 09:23:30;;;;;;;1.52;1.05;;;17.20;43.60;;;10.50;57.50;93668.50;4973617;28;20053;-55
2024/02/26 09:25:55;;;;;;;2.05;1.17;;;17.20;43.60;;;10.32;57.28;93674.88;4990495;28;20047;-52
2024/02/26 09:28:22;;;;;;;1.67;1.20;;;17.10;43.50;;;10.31;58.42;93673.28;4988566;28;20105;-50
2024/02/26 09:30:50;;;;;;;1.75;1.20;;;16.90;43.50;;;10.17;60.21;93668.84;4987617;28;20036;-47
2024/02/26 09:33:16;;;;;;;1.50;1.40;;;16.90;44.30;;;10.02;61.71;93665.81;4966547;28;20041;-50
2024/02/26 09:35:41;;;;;;;2.97;1.40;;;16.70;43.80;;;9.91;60.64;93665.31;4969261;28;20022;-49
2024/02/26 09:38:07;;;;;;;1.30;1.20;;;16.60;43.90;;;9.78;62.75;93663.50;4985166;28;20029;-55
2024/02/26 09:40:33;;;;;;;1.65;1.48;;;16.50;43.90;;;9.79;63.15;93657.13;4987088;28;20025;-47
2024/02/26 09:43:03;;;;;;;1.98;1.40;;;16.40;44.10;;;9.75;64.60;93659.59;4987302;28;20081;-47
2024/02/26 09:45:34;;;;;;;2.45;1.65;;;16.40;44.40;;;9.71;65.17;93655.97;4986592;28;20030;-48
2024/02/26 09:48:04;;;;;;;1.42;1.30;;;16.30;44.50;;;9.94;64.45;93662.81;4986396;28;20100;-56
2024/02/26 09:50:30;;;;;;;1.95;1.67;;;16.30;44.80;;;10.19;63.41;93673.88;4967780;28;20022;-57
2024/02/26 09:53:00;;;;;;;4.05;1.40;;;16.30;44.90;;;10.48;62.64;93675.22;4986349;28;20531;-60
2024/02/26 09:55:26;;;;;;;3.67;1.50;;;16.50;45.60;;;10.76;61.05;93681.88;4966840;28;20121;-52
2024/02/26 09:57:52;;;;;;;6.03;2.30;;;16.70;44.90;;;10.95;59.30;93678.91;4988565;28;20623;-51
2024/02/26 10:00:21;;;;;;;2.28;1.60;;;16.90;44.80;;;11.18;57.80;93689.41;4972019;28;20157;-52
2024/02/26 10:02:48;;;;;;;1.60;1.40;;;17.10;44.40;;;11.27;59.26;93688.31;4988625;28;20021;-52
2024/02/26 10:05:19;;;;;;;3.67;1.80;;;17.30;44.40;;;11.32;58.15;93690.81;4989388;28;20032;-53
2024/02/26 10:07:46;;;;;;;2.00;1.60;;;17.30;44.20;;;11.25;57.99;93689.72;4989898;28;20022;-50
2024/02/26 10:10:17;;;;;;;3.03;1.98;;;17.40;44.00;;;11.16;57.63;93689.72;4972319;28;20382;-48
2024/02/26 10:12:43;;;;;;;2.00;1.38;;;17.50;43.70;;;11.18;59.91;93695.50;4992487;28;20034;-52
2024/02/26 10:15:09;;;;;;;2.08;1.67;;;17.40;43.70;;;11.13;58.95;93689.59;4993235;28;20069;-51
2024/02/26 10:17:36;;;;;;;2.40;1.65;;;17.30;43.60;;;10.95;59.69;93688.78;4993258;28;20426;-49
2024/02/26 10:20:15;;;;;;;1.90;1.60;;;17.30;43.60;;;10.80;62.01;93688.13;4974747;28;20095;-49
2024/02/26 10:22:42;;;;;;;1.90;1.70;;;17.20;43.80;;;10.74;63.15;93692.03;4993269;28;20117;-52